createdAt,value
2023-05-19T00:00:56.656Z,70.70
2023-05-19T00:01:56.672Z,70.70
2023-05-19T00:02:56.743Z,70.70
2023-05-19T00:03:56.848Z,71.01
2023-05-19T00:04:56.611Z,70.80
2023-05-19T00:05:56.650Z,70.70
2023-05-19T00:06:56.588Z,70.84
2023-05-19T00:07:56.591Z,70.73
2023-05-19T00:08:56.576Z,70.63
2023-05-19T00:09:56.576Z,70.63
2023-05-19T00:10:56.574Z,70.63
2023-05-19T00:11:56.577Z,70.73
2023-05-19T00:12:56.538Z,70.63
2023-05-19T00:13:56.536Z,70.53
2023-05-19T00:14:56.522Z,70.22
2023-05-19T00:15:56.556Z,70.42
2023-05-19T00:16:56.502Z,70.76
2023-05-19T00:17:56.511Z,70.63
2023-05-19T00:18:56.557Z,70.63
2023-05-19T00:19:56.473Z,70.56
2023-05-19T00:20:56.461Z,70.32
2023-05-19T00:21:56.451Z,70.84
2023-05-19T00:22:56.443Z,71.14
2023-05-19T00:23:56.457Z,70.63
2023-05-19T00:24:56.422Z,70.42
2023-05-19T00:25:56.416Z,70.63
2023-05-19T00:26:56.406Z,70.46
2023-05-19T00:27:56.401Z,70.36
2023-05-19T00:28:56.385Z,70.66
2023-05-19T00:29:56.388Z,70.87
2023-05-19T00:30:56.379Z,70.97
2023-05-19T00:31:56.389Z,70.97
2023-05-19T00:32:56.367Z,71.38
2023-05-19T00:33:56.351Z,70.97
2023-05-19T00:34:56.331Z,70.76
2023-05-19T00:35:56.323Z,70.87
2023-05-19T00:36:56.316Z,70.97
2023-05-19T00:37:56.310Z,71.17
2023-05-19T00:38:56.316Z,71.17
2023-05-19T00:39:56.290Z,71.17
2023-05-19T00:40:56.273Z,71.21
2023-05-19T00:41:56.265Z,71.41
2023-05-19T00:42:56.259Z,71.31
2023-05-19T00:43:56.252Z,71.51
2023-05-19T00:44:56.241Z,71.21
2023-05-19T00:45:56.230Z,71.38
2023-05-19T00:46:56.251Z,72.03
2023-05-19T00:47:56.231Z,71.83
2023-05-19T00:48:56.215Z,72.13
2023-05-19T00:49:56.191Z,72.47
2023-05-19T00:50:56.181Z,72.03
2023-05-19T00:51:56.181Z,72.03
2023-05-19T00:52:56.165Z,72.13
2023-05-19T00:53:56.152Z,71.72
2023-05-19T00:54:56.144Z,72.34
2023-05-19T00:55:56.207Z,72.96
2023-05-19T00:56:56.125Z,72.58
2023-05-19T00:57:56.112Z,72.47
2023-05-19T00:58:56.106Z,72.38
2023-05-19T00:59:56.097Z,72.47
2023-05-19T01:00:56.147Z,73.19
2023-05-19T01:01:56.169Z,73.40
2023-05-19T01:02:56.178Z,72.58
2023-05-19T01:03:56.156Z,73.30
2023-05-19T01:04:56.048Z,73.40
2023-05-19T01:05:56.038Z,73.74
2023-05-19T01:06:56.040Z,73.61
2023-05-19T01:07:56.020Z,73.91
2023-05-19T01:08:56.027Z,73.91
2023-05-19T01:09:56.000Z,74.02
2023-05-19T01:10:56.010Z,74.36
2023-05-19T01:11:55.988Z,74.05
2023-05-19T01:12:55.968Z,74.46
2023-05-19T01:13:55.962Z,74.46
2023-05-19T01:14:55.958Z,74.46
2023-05-19T01:15:55.977Z,73.95
2023-05-19T01:16:55.994Z,74.57
2023-05-19T01:17:55.954Z,74.36
2023-05-19T01:18:55.948Z,74.67
2023-05-19T01:19:55.905Z,74.57
2023-05-19T01:20:55.892Z,74.77
2023-05-19T01:21:55.889Z,74.87
2023-05-19T01:22:55.881Z,74.67
2023-05-19T01:23:55.870Z,75.22
2023-05-19T01:24:55.853Z,74.87
2023-05-19T01:25:55.842Z,75.52
2023-05-19T01:26:55.850Z,75.32
2023-05-19T01:27:55.829Z,75.22
2023-05-19T01:28:55.815Z,75.32
2023-05-19T01:29:55.825Z,75.42
2023-05-19T01:30:55.803Z,75.12
2023-05-19T01:31:55.799Z,75.12
2023-05-19T01:32:55.847Z,75.42
2023-05-19T01:33:55.772Z,75.94
2023-05-19T01:34:55.763Z,75.73
2023-05-19T01:35:55.749Z,75.42
2023-05-19T01:36:55.737Z,75.84
2023-05-19T01:37:55.731Z,75.84
2023-05-19T01:38:55.723Z,76.56
2023-05-19T01:39:55.714Z,76.28
2023-05-19T01:40:55.702Z,76.90
2023-05-19T01:41:55.695Z,76.39
2023-05-19T01:42:57.432Z,75.87
2023-05-19T01:43:55.676Z,76.18
2023-05-19T01:44:55.695Z,75.67
2023-05-19T01:45:55.710Z,76.28
2023-05-19T01:46:55.644Z,76.18
2023-05-19T01:47:55.703Z,76.18
2023-05-19T01:48:55.625Z,76.79
2023-05-19T01:49:55.616Z,77.76
2023-05-19T01:50:55.610Z,77.04
2023-05-19T01:51:55.595Z,77.31
2023-05-19T01:52:55.592Z,77.76
2023-05-19T01:53:55.579Z,77.55
2023-05-19T01:54:55.569Z,77.66
2023-05-19T01:55:55.561Z,77.66
2023-05-19T01:56:55.552Z,77.86
2023-05-19T01:57:55.543Z,78.38
2023-05-19T01:58:55.532Z,77.45
2023-05-19T01:59:55.528Z,77.76
2023-05-19T02:00:55.564Z,78.89
2023-05-19T02:01:55.508Z,79.20
2023-05-19T02:02:55.509Z,78.72
2023-05-19T02:03:55.535Z,79.00
2023-05-19T02:04:55.510Z,79.14
2023-05-19T02:05:55.464Z,78.58
2023-05-19T02:06:55.464Z,78.89
2023-05-19T02:07:55.449Z,78.58
2023-05-19T02:08:55.432Z,78.89
2023-05-19T02:09:55.424Z,78.69
2023-05-19T02:10:55.413Z,78.48
2023-05-19T02:11:55.423Z,78.38
2023-05-19T02:12:55.398Z,79.00
2023-05-19T02:13:55.383Z,78.17
2023-05-19T02:14:55.372Z,78.58
2023-05-19T02:15:55.426Z,78.69
2023-05-19T02:16:55.350Z,78.58
2023-05-19T02:17:55.377Z,79.10
2023-05-19T02:18:55.419Z,78.79
2023-05-19T02:19:55.320Z,79.03
2023-05-19T02:20:55.311Z,79.44
2023-05-19T02:21:55.300Z,79.96
2023-05-19T02:22:55.293Z,79.72
2023-05-19T02:23:55.314Z,79.75
2023-05-19T02:24:55.270Z,79.65
2023-05-19T02:25:55.261Z,79.03
2023-05-19T02:26:55.249Z,80.06
2023-05-19T02:27:55.254Z,80.06
2023-05-19T02:28:55.254Z,80.58
2023-05-19T02:29:55.215Z,80.47
2023-05-19T02:30:55.211Z,80.27
2023-05-19T02:31:55.267Z,80.58
2023-05-19T02:32:55.221Z,80.89
2023-05-19T02:33:55.178Z,80.79
2023-05-19T02:34:55.175Z,80.89
2023-05-19T02:35:55.171Z,80.58
2023-05-19T02:36:55.157Z,80.58
2023-05-19T02:37:55.140Z,80.99
2023-05-19T02:38:55.141Z,80.99
2023-05-19T02:39:55.120Z,80.58
2023-05-19T02:40:55.113Z,80.58
2023-05-19T02:41:55.097Z,80.68
2023-05-19T02:42:55.091Z,80.68
2023-05-19T02:43:55.081Z,80.58
2023-05-19T02:44:55.077Z,80.06
2023-05-19T02:45:55.086Z,80.54
2023-05-19T02:46:55.101Z,80.44
2023-05-19T02:47:55.062Z,80.27
2023-05-19T02:48:55.042Z,80.54
2023-05-19T02:49:55.022Z,80.13
2023-05-19T02:50:55.012Z,79.93
2023-05-19T02:51:55.042Z,80.02
2023-05-19T02:52:54.989Z,79.72
2023-05-19T02:53:54.989Z,78.89
2023-05-19T02:54:54.978Z,79.61
2023-05-19T02:55:54.968Z,79.41
2023-05-19T02:56:54.952Z,79.37
2023-05-19T02:57:54.999Z,79.93
2023-05-19T02:58:54.934Z,79.93
2023-05-19T02:59:54.931Z,79.72
2023-05-19T03:00:54.909Z,80.23
2023-05-19T03:01:54.968Z,80.23
2023-05-19T03:02:54.977Z,79.61
2023-05-19T03:03:54.992Z,80.02
2023-05-19T03:04:54.877Z,80.54
2023-05-19T03:05:54.871Z,80.44
2023-05-19T03:06:54.857Z,80.23
2023-05-19T03:07:54.846Z,80.02
2023-05-19T03:08:54.834Z,80.33
2023-05-19T03:09:54.827Z,80.44
2023-05-19T03:10:54.814Z,80.13
2023-05-19T03:11:54.816Z,80.65
2023-05-19T03:12:54.792Z,80.23
2023-05-19T03:13:54.790Z,80.27
2023-05-19T03:14:54.773Z,80.54
2023-05-19T03:15:54.778Z,80.65
2023-05-19T03:16:54.823Z,80.23
2023-05-19T03:17:54.851Z,81.09
2023-05-19T03:18:54.754Z,80.37
2023-05-19T03:19:54.738Z,81.09
2023-05-19T03:20:54.720Z,81.16
2023-05-19T03:21:54.711Z,81.16
2023-05-19T03:22:54.707Z,81.16
2023-05-19T03:23:54.695Z,81.05
2023-05-19T03:24:54.679Z,80.33
2023-05-19T03:25:54.670Z,80.33
2023-05-19T03:26:54.660Z,80.37
2023-05-19T03:27:54.651Z,81.16
2023-05-19T03:28:54.643Z,81.51
2023-05-19T03:29:54.631Z,81.30
2023-05-19T03:30:54.649Z,81.30
2023-05-19T03:31:54.612Z,81.37
2023-05-19T03:32:54.622Z,81.30
2023-05-19T03:33:54.606Z,81.30
2023-05-19T03:34:54.583Z,81.20
2023-05-19T03:35:54.574Z,81.51
2023-05-19T03:36:54.559Z,81.51
2023-05-19T03:37:54.547Z,81.57
2023-05-19T03:38:54.546Z,81.81
2023-05-19T03:39:54.545Z,81.61
2023-05-19T03:40:54.525Z,81.88
2023-05-19T03:41:54.513Z,81.98
2023-05-19T03:42:54.503Z,82.12
2023-05-19T03:43:54.496Z,82.29
2023-05-19T03:44:54.488Z,82.29
2023-05-19T03:45:54.516Z,82.29
2023-05-19T03:46:54.469Z,81.88
2023-05-19T03:47:54.514Z,81.47
2023-05-19T03:48:54.453Z,81.88
2023-05-19T03:49:54.432Z,81.88
2023-05-19T03:50:54.430Z,81.88
2023-05-19T03:51:54.427Z,82.09
2023-05-19T03:52:54.416Z,81.47
2023-05-19T03:53:54.408Z,81.47
2023-05-19T03:54:54.392Z,81.37
2023-05-19T03:55:54.375Z,81.12
2023-05-19T03:56:54.372Z,81.33
2023-05-19T03:57:54.362Z,81.23
2023-05-19T03:58:54.349Z,80.91
2023-05-19T03:59:54.338Z,80.57
2023-05-19T04:00:54.327Z,81.09
2023-05-19T04:01:54.358Z,80.53
2023-05-19T04:02:54.409Z,80.33
2023-05-19T04:03:54.300Z,79.36
2023-05-19T04:04:54.385Z,79.05
2023-05-19T04:05:54.279Z,78.30
2023-05-19T04:06:54.272Z,77.78
2023-05-19T04:07:54.262Z,76.21
2023-05-19T04:08:54.252Z,76.68
2023-05-19T04:09:54.242Z,75.42
2023-05-19T04:10:54.232Z,75.73
2023-05-19T04:11:54.230Z,74.57
2023-05-19T04:12:54.213Z,73.95
2023-05-19T04:13:54.203Z,74.60
2023-05-19T04:14:54.200Z,74.70
2023-05-19T04:15:54.225Z,74.91
2023-05-19T04:16:54.182Z,74.46
2023-05-19T04:17:54.228Z,74.08
2023-05-19T04:18:54.264Z,73.95
2023-05-19T04:19:54.151Z,73.44
2023-05-19T04:20:54.140Z,73.19
2023-05-19T04:21:54.136Z,72.55
2023-05-19T04:22:54.128Z,72.41
2023-05-19T04:23:54.121Z,70.98
2023-05-19T04:24:54.102Z,71.39
2023-05-19T04:25:54.098Z,71.90
2023-05-19T04:26:54.088Z,70.98
2023-05-19T04:27:54.077Z,70.81
2023-05-19T04:28:54.065Z,70.91
2023-05-19T04:29:54.059Z,72.48
2023-05-19T04:30:54.091Z,73.23
2023-05-19T04:31:54.043Z,73.78
2023-05-19T04:32:54.054Z,74.29
2023-05-19T04:33:54.023Z,74.91
2023-05-19T04:34:54.016Z,75.04
2023-05-19T04:35:54.008Z,75.15
2023-05-19T04:36:54.000Z,75.21
2023-05-19T04:37:53.988Z,75.32
2023-05-19T04:38:53.981Z,75.83
2023-05-19T04:39:53.974Z,74.70
2023-05-19T04:40:53.962Z,75.21
2023-05-19T04:41:53.961Z,75.32
2023-05-19T04:42:53.949Z,74.98
2023-05-19T04:43:53.938Z,74.36
2023-05-19T04:44:53.950Z,73.57
2023-05-19T04:45:53.923Z,73.27
2023-05-19T04:46:54.031Z,73.44
2023-05-19T04:47:53.939Z,72.34
2023-05-19T04:48:53.894Z,72.11
2023-05-19T04:49:53.885Z,71.69
2023-05-19T04:50:53.882Z,72.31
2023-05-19T04:51:55.919Z,70.84
2023-05-19T04:52:53.857Z,71.18
2023-05-19T04:53:53.852Z,71.80
2023-05-19T04:54:53.839Z,72.17
2023-05-19T04:55:53.834Z,71.22
2023-05-19T04:56:53.823Z,69.38
2023-05-19T04:57:53.818Z,70.40
2023-05-19T04:58:53.875Z,70.26
2023-05-19T04:59:53.801Z,70.47
2023-05-19T05:00:53.788Z,69.14
2023-05-19T05:01:53.942Z,69.55
2023-05-19T05:02:53.810Z,68.90
2023-05-19T05:03:53.885Z,69.21
2023-05-19T05:04:53.777Z,68.53
2023-05-19T05:05:53.757Z,68.43
2023-05-19T05:06:53.738Z,68.43
2023-05-19T05:07:53.730Z,68.80
2023-05-19T05:08:53.730Z,69.14
2023-05-19T05:09:53.712Z,69.21
2023-05-19T05:10:53.705Z,69.01
2023-05-19T05:11:53.694Z,69.14
2023-05-19T05:12:53.697Z,68.90
2023-05-19T05:13:53.680Z,68.97
2023-05-19T05:14:53.670Z,68.12
2023-05-19T05:15:53.716Z,67.51
2023-05-19T05:16:53.730Z,68.53
2023-05-19T05:17:53.724Z,68.19
2023-05-19T05:18:53.672Z,66.53
2023-05-19T05:19:53.635Z,67.21
2023-05-19T05:20:53.624Z,67.41
2023-05-19T05:21:53.612Z,67.68
2023-05-19T05:22:53.610Z,67.21
2023-05-19T05:23:53.603Z,67.65
2023-05-19T05:24:53.591Z,67.24
2023-05-19T05:25:53.586Z,66.74
2023-05-19T05:26:53.577Z,67.27
2023-05-19T05:27:53.567Z,67.55
2023-05-19T05:28:53.561Z,66.97
2023-05-19T05:29:53.555Z,65.48
2023-05-19T05:30:53.545Z,64.90
2023-05-19T05:31:53.547Z,64.78
2023-05-19T05:32:53.762Z,64.06
2023-05-19T05:33:53.585Z,63.24
2023-05-19T05:34:53.533Z,65.42
2023-05-19T05:35:53.511Z,64.53
2023-05-19T05:36:53.506Z,66.02
2023-05-19T05:37:53.497Z,67.18
2023-05-19T05:38:53.492Z,67.21
2023-05-19T05:39:53.480Z,68.74
2023-05-19T05:40:53.615Z,69.04
2023-05-19T05:41:53.467Z,68.23
2023-05-19T05:42:53.462Z,68.12
2023-05-19T05:43:53.463Z,68.70
2023-05-19T05:44:53.446Z,68.40
2023-05-19T05:45:53.446Z,68.19
2023-05-19T05:46:53.434Z,68.60
2023-05-19T05:47:53.481Z,68.91
2023-05-19T05:48:53.418Z,68.67
2023-05-19T05:49:53.729Z,68.47
2023-05-19T05:50:53.404Z,67.85
2023-05-19T05:52:04.892Z,67.58
2023-05-19T05:52:53.389Z,68.57
2023-05-19T05:53:53.386Z,68.50
2023-05-19T05:54:53.429Z,68.12
2023-05-19T05:55:53.371Z,69.24
2023-05-19T05:56:53.364Z,70.78
2023-05-19T05:57:53.358Z,69.96
2023-05-19T05:58:53.364Z,70.17
2023-05-19T05:59:53.343Z,70.78
2023-05-19T06:00:53.361Z,70.88
2023-05-19T06:01:53.469Z,70.78
2023-05-19T06:02:53.445Z,70.68
2023-05-19T06:03:53.329Z,70.27
2023-05-19T06:04:53.306Z,69.86
2023-05-19T06:05:53.449Z,70.06
2023-05-19T06:06:53.300Z,69.96
2023-05-19T06:07:53.286Z,69.86
2023-05-19T06:08:53.280Z,70.88
2023-05-19T06:09:53.272Z,69.73
2023-05-19T06:10:53.276Z,69.32
2023-05-19T06:11:53.265Z,69.18
2023-05-19T06:12:53.248Z,69.05
2023-05-19T06:13:53.284Z,68.61
2023-05-19T06:14:53.239Z,67.25
2023-05-19T06:15:53.271Z,66.94
2023-05-19T06:16:53.228Z,66.64
2023-05-19T06:17:53.245Z,66.85
2023-05-19T06:18:53.265Z,67.05
2023-05-19T06:19:53.223Z,67.18
2023-05-19T06:20:53.194Z,67.62
2023-05-19T06:21:53.190Z,68.03
2023-05-19T06:22:53.185Z,68.23
2023-05-19T06:23:53.177Z,68.23
2023-05-19T06:24:53.172Z,67.90
2023-05-19T06:25:53.162Z,67.29
2023-05-19T06:26:53.358Z,66.94
2023-05-19T06:27:53.163Z,66.88
2023-05-19T06:28:53.141Z,66.14
2023-05-19T06:29:53.144Z,64.25
2023-05-19T06:30:53.126Z,64.35
2023-05-19T06:31:53.150Z,63.64
2023-05-19T06:32:53.150Z,64.52
2023-05-19T06:33:53.111Z,61.04
2023-05-19T06:34:53.113Z,61.52
2023-05-19T06:35:53.100Z,60.44
2023-05-19T06:36:53.089Z,58.97
2023-05-19T06:37:53.098Z,57.32
2023-05-19T06:38:53.082Z,57.15
2023-05-19T06:39:53.078Z,58.80
2023-05-19T06:40:53.085Z,58.06
2023-05-19T06:41:53.061Z,57.96
2023-05-19T06:42:53.065Z,56.79
2023-05-19T06:43:53.054Z,56.41
2023-05-19T06:44:53.047Z,57.81
2023-05-19T06:45:53.050Z,58.09
2023-05-19T06:46:53.123Z,58.04
2023-05-19T06:47:53.146Z,58.92
2023-05-19T06:48:53.031Z,57.86
2023-05-19T06:49:53.036Z,57.75
2023-05-19T06:50:53.024Z,58.22
2023-05-19T06:51:53.019Z,59.12
2023-05-19T06:52:53.016Z,59.10
2023-05-19T06:53:53.013Z,58.06
2023-05-19T06:54:53.005Z,58.16
2023-05-19T06:55:59.443Z,58.29
2023-05-19T06:56:53.005Z,59.10
2023-05-19T06:57:53.004Z,58.16
2023-05-19T06:58:53.003Z,56.96
2023-05-19T06:59:52.987Z,55.52
2023-05-19T07:00:52.995Z,55.85
2023-05-19T07:01:53.108Z,56.05
2023-05-19T07:02:53.056Z,55.93
2023-05-19T07:03:53.063Z,56.13
2023-05-19T07:04:52.988Z,55.49
2023-05-19T07:05:52.970Z,55.16
2023-05-19T07:06:52.967Z,54.53
2023-05-19T07:07:52.964Z,53.75
2023-05-19T07:08:52.983Z,53.32
2023-05-19T07:09:53.063Z,54.99
2023-05-19T07:10:52.945Z,54.99
2023-05-19T07:11:52.962Z,55.36
2023-05-19T07:12:52.950Z,55.09
2023-05-19T07:13:52.951Z,55.57
2023-05-19T07:14:52.944Z,54.00
2023-05-19T07:15:52.963Z,53.65
2023-05-19T07:16:52.996Z,51.33
2023-05-19T07:17:52.965Z,52.56
2023-05-19T07:18:52.974Z,53.27
2023-05-19T07:19:52.939Z,52.51
2023-05-19T07:20:52.937Z,52.67
2023-05-19T07:21:52.928Z,53.42
2023-05-19T07:22:52.928Z,55.60
2023-05-19T07:23:52.928Z,55.47
2023-05-19T07:24:52.917Z,54.71
2023-05-19T07:25:52.916Z,52.74
2023-05-19T07:26:52.916Z,51.84
2023-05-19T07:27:52.924Z,53.83
2023-05-19T07:28:52.912Z,55.09
2023-05-19T07:29:52.910Z,55.07
2023-05-19T07:30:52.911Z,55.36
2023-05-19T07:31:52.924Z,54.81
2023-05-19T07:32:52.927Z,53.85
2023-05-19T07:33:54.584Z,52.94
2023-05-19T07:34:52.903Z,52.82
2023-05-19T07:35:53.000Z,52.62
2023-05-19T07:36:52.900Z,53.27
2023-05-19T07:37:52.911Z,53.72
2023-05-19T07:38:52.991Z,55.80
2023-05-19T07:39:52.892Z,54.86
2023-05-19T07:40:52.942Z,55.07
2023-05-19T07:41:52.904Z,54.58
2023-05-19T07:42:52.897Z,53.09
2023-05-19T07:43:52.893Z,55.49
2023-05-19T07:44:52.882Z,56.43
2023-05-19T07:45:52.949Z,55.32
2023-05-19T07:46:52.886Z,54.28
2023-05-19T07:47:52.918Z,53.02
2023-05-19T07:48:52.877Z,51.43
2023-05-19T07:49:52.878Z,52.64
2023-05-19T07:50:52.885Z,51.73
2023-05-19T07:51:52.874Z,52.44
2023-05-19T07:52:52.874Z,52.22
2023-05-19T07:53:52.870Z,52.51
2023-05-19T07:54:52.872Z,52.62
2023-05-19T07:55:52.872Z,52.34
2023-05-19T07:56:52.866Z,52.72
2023-05-19T07:57:52.959Z,52.94
2023-05-19T07:58:52.866Z,52.37
2023-05-19T07:59:52.866Z,51.26
2023-05-19T08:25:58.003Z,50.78
2023-05-19T08:26:42.508Z,50.48
2023-05-19T08:28:46.567Z,50.51
2023-05-19T08:29:46.489Z,51.61
2023-05-19T08:31:39.615Z,50.58
2023-05-19T08:32:39.619Z,49.80
2023-05-19T08:34:43.570Z,50.93
2023-05-19T08:35:43.560Z,50.95
2023-05-19T08:37:47.578Z,53.09
2023-05-19T08:38:47.552Z,53.90
2023-05-19T08:40:40.663Z,52.06
2023-05-19T08:41:40.642Z,52.69
2023-05-19T08:43:44.627Z,51.07
2023-05-19T08:44:44.615Z,50.65
2023-05-19T08:46:37.588Z,50.70
2023-05-19T08:47:37.562Z,51.71
2023-05-19T08:49:30.645Z,50.32
2023-05-19T08:50:30.958Z,51.40
2023-05-19T08:52:34.644Z,49.59
2023-05-19T08:53:34.902Z,50.30
2023-05-19T08:55:38.662Z,49.44
2023-05-19T08:56:38.645Z,48.76
2023-05-19T08:58:31.845Z,45.24
2023-05-19T08:59:31.852Z,47.58
2023-05-19T09:01:24.983Z,48.26
2023-05-19T09:02:25.001Z,47.23
2023-05-19T09:04:30.133Z,46.88
2023-05-19T09:05:29.022Z,48.01
2023-05-19T09:07:33.021Z,46.48
2023-05-19T09:08:33.023Z,46.08
2023-05-19T09:10:27.291Z,48.36
2023-05-19T09:11:26.465Z,48.99
2023-05-19T09:13:19.594Z,49.99
2023-05-19T09:14:19.616Z,49.09
2023-05-19T09:15:19.597Z,49.59
2023-05-19T09:16:19.640Z,48.83
2023-05-19T09:17:19.607Z,49.66
2023-05-19T09:18:19.557Z,49.91
2023-05-19T09:19:19.577Z,51.03
2023-05-19T09:20:19.637Z,51.03
2023-05-19T09:21:19.573Z,49.99
2023-05-19T09:22:19.548Z,50.27
2023-05-19T09:23:19.543Z,50.65
2023-05-19T09:24:19.528Z,48.91
2023-05-19T09:25:19.572Z,50.02
2023-05-19T09:26:19.535Z,48.30
2023-05-19T09:27:19.526Z,48.49
2023-05-19T09:28:19.526Z,47.58
2023-05-19T09:29:19.520Z,49.01
2023-05-19T09:30:19.673Z,49.90
2023-05-19T09:31:19.509Z,48.69
2023-05-19T09:32:19.643Z,47.66
2023-05-19T09:33:19.563Z,47.35
2023-05-19T09:34:19.502Z,46.85
2023-05-19T09:35:19.503Z,47.75
2023-05-19T09:36:19.507Z,48.86
2023-05-19T09:37:19.491Z,47.05
2023-05-19T09:38:19.491Z,47.96
2023-05-19T09:39:19.485Z,48.38
2023-05-19T09:40:19.482Z,49.16
2023-05-19T09:41:19.476Z,49.39
2023-05-19T09:42:19.471Z,47.78
2023-05-19T09:43:19.471Z,47.27
2023-05-19T09:44:19.468Z,48.58
2023-05-19T09:45:19.499Z,48.99
2023-05-19T09:46:19.471Z,48.69
2023-05-19T09:47:19.460Z,47.27
2023-05-19T09:48:19.459Z,47.60
2023-05-19T09:49:19.451Z,47.70
2023-05-19T09:50:19.460Z,47.98
2023-05-19T09:51:19.450Z,47.47
2023-05-19T09:52:19.443Z,48.14
2023-05-19T09:53:19.443Z,46.42
2023-05-19T09:54:19.433Z,47.03
2023-05-19T09:55:19.433Z,44.93
2023-05-19T09:56:19.430Z,45.03
2023-05-19T09:57:19.424Z,44.95
2023-05-19T09:58:19.421Z,45.58
2023-05-19T09:59:19.419Z,44.85
2023-05-19T10:00:19.412Z,45.58
2023-05-19T10:01:19.448Z,45.86
2023-05-19T10:02:19.425Z,45.18
2023-05-19T10:03:19.464Z,46.29
2023-05-19T10:04:19.400Z,44.87
2023-05-19T10:05:19.459Z,45.81
2023-05-19T10:06:19.416Z,46.41
2023-05-19T10:07:19.415Z,45.98
2023-05-19T10:08:19.414Z,46.41
2023-05-19T10:09:19.387Z,46.61
2023-05-19T10:10:19.393Z,46.39
2023-05-19T10:11:19.376Z,46.17
2023-05-19T10:12:19.386Z,45.74
2023-05-19T10:13:19.367Z,45.97
2023-05-19T10:14:19.371Z,46.37
2023-05-19T10:15:20.671Z,46.34
2023-05-19T10:16:19.417Z,45.14
2023-05-19T10:17:19.356Z,45.72
2023-05-19T10:18:19.358Z,45.42
2023-05-19T10:19:19.438Z,44.43
2023-05-19T10:20:19.344Z,45.24
2023-05-19T10:21:19.339Z,44.92
2023-05-19T10:22:19.333Z,44.71
2023-05-19T10:23:19.333Z,45.27
2023-05-19T10:24:19.324Z,44.27
2023-05-19T10:25:19.327Z,44.59
2023-05-19T10:26:19.324Z,44.41
2023-05-19T10:27:19.317Z,45.03
2023-05-19T10:28:19.312Z,45.52
2023-05-19T10:29:19.307Z,45.52
2023-05-19T10:30:19.308Z,44.71
2023-05-19T10:31:19.302Z,45.52
2023-05-19T10:32:19.387Z,44.43
2023-05-19T10:33:19.317Z,44.83
2023-05-19T10:34:19.327Z,44.85
2023-05-19T10:35:19.289Z,45.66
2023-05-19T10:36:19.340Z,45.64
2023-05-19T10:37:19.276Z,44.53
2023-05-19T10:38:19.275Z,44.05
2023-05-19T10:39:19.296Z,43.62
2023-05-19T10:40:19.268Z,44.61
2023-05-19T10:41:19.262Z,43.48
2023-05-19T10:42:19.267Z,43.08
2023-05-19T10:43:19.257Z,43.59
2023-05-19T10:44:19.252Z,43.87
2023-05-19T10:45:19.253Z,42.76
2023-05-19T10:46:19.297Z,42.55
2023-05-19T10:47:19.308Z,44.17
2023-05-19T10:48:19.241Z,43.82
2023-05-19T10:49:19.234Z,42.21
2023-05-19T10:50:19.238Z,43.24
2023-05-19T10:51:19.231Z,44.04
2023-05-19T10:52:19.232Z,44.02
2023-05-19T10:53:19.221Z,43.72
2023-05-19T10:54:19.216Z,43.40
2023-05-19T10:55:19.262Z,42.52
2023-05-19T10:56:19.233Z,41.95
2023-05-19T10:57:19.212Z,44.79
2023-05-19T10:58:19.205Z,44.39
2023-05-19T10:59:19.199Z,44.29
2023-05-19T11:00:19.243Z,44.77
2023-05-19T11:01:19.331Z,44.97
2023-05-19T11:02:19.314Z,44.27
2023-05-19T11:03:19.207Z,44.67
2023-05-19T11:04:19.233Z,44.47
2023-05-19T11:05:19.192Z,43.38
2023-05-19T11:06:19.285Z,44.73
2023-05-19T11:07:19.179Z,44.75
2023-05-19T11:08:19.176Z,45.03
2023-05-19T11:09:20.902Z,45.62
2023-05-19T11:10:19.167Z,44.21
2023-05-19T11:11:19.176Z,45.07
2023-05-19T11:12:19.163Z,44.41
2023-05-19T11:13:19.162Z,44.59
2023-05-19T11:14:19.179Z,43.88
2023-05-19T11:15:19.156Z,43.48
2023-05-19T11:16:19.197Z,44.49
2023-05-19T11:17:19.174Z,43.36
2023-05-19T11:18:19.165Z,44.59
2023-05-19T11:19:19.200Z,44.17
2023-05-19T11:20:19.138Z,43.26
2023-05-19T11:21:19.223Z,43.95
2023-05-19T11:22:19.132Z,42.84
2023-05-19T11:23:19.177Z,43.46
2023-05-19T11:24:19.129Z,44.59
2023-05-19T11:25:19.118Z,45.09
2023-05-19T11:26:19.130Z,44.49
2023-05-19T11:27:19.138Z,45.59
2023-05-19T11:28:19.174Z,44.51
2023-05-19T11:29:19.143Z,45.54
2023-05-19T11:30:19.117Z,45.76
2023-05-19T11:31:19.102Z,45.54
2023-05-19T11:32:19.174Z,46.14
2023-05-19T11:33:19.162Z,44.83
2023-05-19T11:34:19.089Z,45.24
2023-05-19T11:35:19.151Z,45.12
2023-05-19T11:36:19.087Z,44.81
2023-05-19T11:37:19.085Z,45.17
2023-05-19T11:38:19.192Z,43.95
2023-05-19T11:39:19.088Z,45.10
2023-05-19T11:40:19.102Z,43.40
2023-05-19T11:41:20.785Z,42.10
2023-05-19T11:42:19.127Z,41.89
2023-05-19T11:43:19.063Z,43.08
2023-05-19T11:44:19.134Z,40.57
2023-05-19T11:45:19.054Z,40.81
2023-05-19T11:46:19.079Z,41.35
2023-05-19T11:47:19.047Z,42.96
2023-05-19T11:48:19.078Z,41.67
2023-05-19T11:49:19.048Z,42.18
2023-05-19T11:50:19.051Z,43.08
2023-05-19T11:51:19.041Z,42.66
2023-05-19T11:52:19.085Z,42.76
2023-05-19T11:53:19.034Z,41.93
2023-05-19T11:54:19.037Z,43.36
2023-05-19T11:55:19.035Z,42.05
2023-05-19T11:56:19.030Z,42.66
2023-05-19T11:57:19.013Z,44.07
2023-05-19T11:58:19.024Z,44.15
2023-05-19T11:59:19.050Z,42.11
2023-05-19T12:00:19.018Z,43.70
2023-05-19T12:01:19.010Z,41.29
2023-05-19T12:02:19.049Z,41.41
2023-05-19T12:03:19.040Z,41.82
2023-05-19T12:04:19.001Z,41.53
2023-05-19T12:05:19.041Z,41.82
2023-05-19T12:06:19.018Z,42.11
2023-05-19T12:07:18.994Z,41.82
2023-05-19T12:08:19.027Z,42.64
2023-05-19T12:09:19.000Z,43.12
2023-05-19T12:10:18.994Z,43.62
2023-05-19T12:11:20.077Z,42.82
2023-05-19T12:12:18.982Z,43.02
2023-05-19T12:13:18.976Z,43.42
2023-05-19T12:14:19.010Z,42.61
2023-05-19T12:15:18.975Z,43.32
2023-05-19T12:16:19.007Z,42.24
2023-05-19T12:17:18.970Z,42.07
2023-05-19T12:18:18.965Z,43.48
2023-05-19T12:19:19.005Z,44.37
2023-05-19T12:20:18.967Z,43.87
2023-05-19T12:21:18.957Z,43.68
2023-05-19T12:22:18.955Z,44.59
2023-05-19T12:23:18.958Z,44.24
2023-05-19T12:24:18.949Z,42.24
2023-05-19T12:25:18.999Z,41.53
2023-05-19T12:26:18.945Z,42.74
2023-05-19T12:27:18.944Z,43.46
2023-05-19T12:28:18.941Z,42.88
2023-05-19T12:29:18.936Z,42.78
2023-05-19T12:30:18.933Z,42.60
2023-05-19T12:31:18.946Z,44.19
2023-05-19T12:32:18.926Z,42.47
2023-05-19T12:33:18.926Z,42.88
2023-05-19T12:34:18.922Z,43.59
2023-05-19T12:35:18.917Z,43.10
2023-05-19T12:36:19.026Z,42.80
2023-05-19T12:37:18.914Z,43.18
2023-05-19T12:38:18.914Z,43.79
2023-05-19T12:39:19.568Z,41.97
2023-05-19T12:40:18.923Z,41.97
2023-05-19T12:41:18.902Z,42.18
2023-05-19T12:42:18.947Z,42.27
2023-05-19T12:43:18.897Z,42.78
2023-05-19T12:44:18.892Z,42.96
2023-05-19T12:45:18.904Z,42.24
2023-05-19T12:46:19.096Z,41.47
2023-05-19T12:47:18.886Z,42.78
2023-05-19T12:48:18.901Z,42.86
2023-05-19T12:49:18.885Z,42.68
2023-05-19T12:50:18.883Z,42.76
2023-05-19T12:51:18.875Z,41.93
2023-05-19T12:52:18.870Z,41.43
2023-05-19T12:53:18.868Z,41.83
2023-05-19T12:54:18.912Z,42.92
2023-05-19T12:55:18.863Z,41.51
2023-05-19T12:56:18.857Z,40.50
2023-05-19T12:57:18.854Z,42.44
2023-05-19T12:58:18.852Z,41.95
2023-05-19T12:59:26.987Z,42.07
2023-05-19T13:00:18.900Z,44.19
2023-05-19T13:01:18.909Z,42.58
2023-05-19T13:02:18.937Z,42.96
2023-05-19T13:03:18.981Z,43.08
2023-05-19T13:04:18.858Z,42.98
2023-05-19T13:05:18.832Z,43.48
2023-05-19T13:06:18.828Z,44.59
2023-05-19T13:07:18.843Z,43.46
2023-05-19T13:08:18.819Z,42.78
2023-05-19T13:09:18.820Z,44.79
2023-05-19T13:10:18.818Z,44.69
2023-05-19T13:11:18.818Z,43.68
2023-05-19T13:12:18.813Z,43.66
2023-05-19T13:13:18.808Z,44.39
2023-05-19T13:14:18.808Z,43.26
2023-05-19T13:15:18.800Z,43.59
2023-05-19T13:16:18.833Z,43.96
2023-05-19T13:17:18.792Z,43.44
2023-05-19T13:18:18.802Z,43.14
2023-05-19T13:19:25.527Z,41.93
2023-05-19T13:20:18.785Z,42.15
2023-05-19T13:21:18.782Z,43.46
2023-05-19T13:22:18.778Z,42.25
2023-05-19T13:23:18.773Z,42.46
2023-05-19T13:24:18.802Z,41.69
2023-05-19T13:25:18.774Z,42.60
2023-05-19T13:26:18.767Z,41.99
2023-05-19T13:27:18.783Z,43.28
2023-05-19T13:28:18.762Z,42.98
2023-05-19T13:29:18.752Z,42.47
2023-05-19T13:30:18.780Z,42.88
2023-05-19T13:31:18.794Z,42.27
2023-05-19T13:32:18.760Z,42.18
2023-05-19T13:33:18.813Z,42.18